Time;durP1;ratioP1;P1;durP2;ratioP2;P2;SDS_P1;SDS_P2;PMS_P1;PMS_P2;Temp;Humidity;BMP_temperature;BMP_pressure;BME280_temperature;BME280_humidity;BME280_pressure;Samples;Min_cycle;Max_cycle;Signal;HPM_P1;HPM_P2
2023/07/01 00:01:55;;;;;;;38.65;17.85;;;;;;;;;;4999182;28;20045;-73
2023/07/01 00:04:20;;;;;;;33.30;17.02;;;;;;;;;;5001911;28;20050;-73
2023/07/01 00:06:45;;;;;;;34.45;17.92;;;;;;;;;;5000556;28;20522;-72
2023/07/01 00:09:11;;;;;;;33.40;17.52;;;;;;;;;;4999476;28;20045;-74
2023/07/01 00:11:37;;;;;;;34.92;18.63;;;;;;;;;;5000529;28;20045;-72
2023/07/01 00:14:03;;;;;;;40.35;19.30;;;;;;;;;;5000387;28;20129;-72
2023/07/01 00:16:28;;;;;;;35.63;18.15;;;;;;;;;;5000067;28;20103;-74
2023/07/01 00:18:54;;;;;;;35.28;19.05;;;;;;;;;;4998607;28;20049;-72
2023/07/01 00:21:19;;;;;;;34.50;18.83;;;;;;;;;;4999899;28;20052;-73
2023/07/01 00:23:45;;;;;;;37.17;19.02;;;;;;;;;;5000335;28;20073;-72
2023/07/01 00:26:10;;;;;;;38.67;19.20;;;;;;;;;;5001886;28;20041;-72
2023/07/01 00:28:36;;;;;;;38.22;19.58;;;;;;;;;;5000863;28;20060;-73
2023/07/01 00:31:01;;;;;;;43.03;19.77;;;;;;;;;;4998872;28;20125;-72
2023/07/01 00:33:26;;;;;;;38.80;19.45;;;;;;;;;;4998489;28;20046;-72
2023/07/01 00:35:52;;;;;;;37.25;18.67;;;;;;;;;;4999992;28;20132;-74
2023/07/01 00:38:18;;;;;;;39.42;19.38;;;;;;;;;;5001709;28;20597;-74
2023/07/01 00:40:43;;;;;;;37.35;18.67;;;;;;;;;;5006752;28;20089;-72
2023/07/01 00:43:09;;;;;;;36.72;19.42;;;;;;;;;;4998507;28;20450;-72
2023/07/01 00:45:34;;;;;;;37.33;19.42;;;;;;;;;;4998700;28;20137;-72
2023/07/01 00:47:59;;;;;;;42.20;20.83;;;;;;;;;;4999233;28;20076;-73
2023/07/01 00:50:25;;;;;;;34.83;18.73;;;;;;;;;;5000374;28;20041;-72
2023/07/01 00:52:50;;;;;;;36.10;19.25;;;;;;;;;;5004863;28;20064;-74
2023/07/01 00:55:16;;;;;;;38.78;18.70;;;;;;;;;;5002063;28;20050;-71
2023/07/01 00:57:42;;;;;;;35.58;18.73;;;;;;;;;;5002102;28;20161;-73
2023/07/01 01:00:10;;;;;;;41.00;18.70;;;;;;;;;;4997911;28;20077;-72
2023/07/01 01:02:57;;;;;;;39.88;19.73;;;;;;;;;;5001484;28;20080;-71
2023/07/01 01:05:41;;;;;;;34.95;17.85;;;;;;;;;;5005562;28;20054;-74
2023/07/01 01:08:10;;;;;;;40.80;18.83;;;;;;;;;;5003919;28;20164;-74
2023/07/01 01:10:39;;;;;;;39.90;18.98;;;;;;;;;;5005083;28;20099;-73
2023/07/01 01:13:06;;;;;;;35.90;19.02;;;;;;;;;;5006393;28;20072;-74
2023/07/01 01:15:31;;;;;;;41.88;19.77;;;;;;;;;;5002667;28;20108;-74
2023/07/01 01:18:04;;;;;;;35.72;18.15;;;;;;;;;;5000921;28;20045;-74
2023/07/01 01:20:33;;;;;;;41.92;18.77;;;;;;;;;;5006040;28;20041;-73
2023/07/01 01:23:05;;;;;;;38.95;18.75;;;;;;;;;;5002612;28;20490;-72
2023/07/01 01:25:45;;;;;;;41.03;19.48;;;;;;;;;;5003536;28;20038;-73
2023/07/01 01:28:12;;;;;;;35.47;17.52;;;;;;;;;;5002337;28;20046;-72
2023/07/01 01:30:38;;;;;;;38.70;20.05;;;;;;;;;;5001755;28;20046;-72
2023/07/01 01:33:06;;;;;;;36.35;18.77;;;;;;;;;;5001278;28;20064;-72
2023/07/01 01:35:31;;;;;;;39.15;18.92;;;;;;;;;;5002143;28;20057;-73
2023/07/01 01:38:17;;;;;;;34.20;18.23;;;;;;;;;;5004190;28;20048;-72
2023/07/01 01:40:56;;;;;;;34.63;18.55;;;;;;;;;;5005822;28;20049;-73
2023/07/01 01:43:45;;;;;;;35.88;18.60;;;;;;;;;;5002887;28;20500;-72
2023/07/01 01:46:12;;;;;;;34.65;18.10;;;;;;;;;;5007339;28;20046;-73
2023/07/01 01:48:38;;;;;;;42.13;19.70;;;;;;;;;;5005372;28;20045;-73
2023/07/01 01:51:05;;;;;;;41.20;19.73;;;;;;;;;;5001233;28;20483;-73
2023/07/01 01:53:32;;;;;;;37.15;18.92;;;;;;;;;;5005526;28;20495;-74
2023/07/01 01:55:58;;;;;;;42.17;18.73;;;;;;;;;;5009750;28;20034;-74
2023/07/01 01:58:24;;;;;;;39.03;19.40;;;;;;;;;;5004909;28;20041;-74
2023/07/01 02:00:50;;;;;;;38.92;19.15;;;;;;;;;;5001324;28;20454;-72
2023/07/01 02:03:15;;;;;;;40.20;19.77;;;;;;;;;;5001005;28;20037;-75
2023/07/01 02:05:41;;;;;;;34.92;17.77;;;;;;;;;;5001717;28;20125;-73
2023/07/01 02:08:06;;;;;;;39.05;18.73;;;;;;;;;;5001450;28;20557;-73
2023/07/01 02:10:35;;;;;;;41.00;19.77;;;;;;;;;;5003313;28;20057;-74
2023/07/01 02:13:01;;;;;;;37.97;19.08;;;;;;;;;;5001599;28;20037;-72
2023/07/01 02:15:27;;;;;;;40.20;18.80;;;;;;;;;;5000387;28;20680;-73
2023/07/01 02:17:55;;;;;;;37.72;18.35;;;;;;;;;;5002028;28;20033;-73
2023/07/01 02:20:21;;;;;;;38.88;18.48;;;;;;;;;;5004857;28;20048;-72
2023/07/01 02:22:46;;;;;;;39.25;19.23;;;;;;;;;;5000665;28;20049;-74
2023/07/01 02:25:12;;;;;;;43.00;18.45;;;;;;;;;;5021796;28;20060;-71
2023/07/01 02:27:37;;;;;;;41.05;19.35;;;;;;;;;;5020706;28;20045;-73
2023/07/01 02:30:03;;;;;;;39.30;20.20;;;;;;;;;;5021107;28;20037;-72
2023/07/01 02:32:29;;;;;;;42.35;20.15;;;;;;;;;;5022079;28;20056;-72
2023/07/01 02:34:54;;;;;;;47.75;20.67;;;;;;;;;;5034748;28;20049;-74
2023/07/01 02:37:20;;;;;;;43.97;20.55;;;;;;;;;;5021529;28;20107;-73
2023/07/01 02:39:46;;;;;;;42.88;19.23;;;;;;;;;;5008800;28;20469;-74
2023/07/01 02:42:15;;;;;;;39.25;19.60;;;;;;;;;;5020901;28;20053;-71
2023/07/01 02:44:42;;;;;;;37.55;18.92;;;;;;;;;;5021154;28;20053;-71
2023/07/01 02:47:07;;;;;;;36.92;18.85;;;;;;;;;;5019795;28;20138;-73
2023/07/01 02:49:33;;;;;;;36.90;17.00;;;;;;;;;;5003956;28;20128;-73
2023/07/01 02:51:58;;;;;;;36.97;16.77;;;;;;;;;;5022916;28;20052;-72
2023/07/01 02:54:24;;;;;;;38.08;18.70;;;;;;;;;;5031422;28;20052;-71
2023/07/01 02:56:49;;;;;;;33.38;17.00;;;;;;;;;;5020273;28;20037;-72
2023/07/01 02:59:15;;;;;;;38.33;18.92;;;;;;;;;;5003310;28;20073;-73
2023/07/01 03:01:44;;;;;;;34.22;17.08;;;;;;;;;;5021404;28;20045;-73
2023/07/01 03:04:11;;;;;;;33.72;16.60;;;;;;;;;;5020267;28;20413;-73
2023/07/01 03:06:37;;;;;;;38.35;17.30;;;;;;;;;;5019374;28;20125;-72
2023/07/01 03:09:07;;;;;;;35.95;18.15;;;;;;;;;;5019360;28;20037;-72
2023/07/01 03:11:36;;;;;;;34.15;16.88;;;;;;;;;;5020557;28;20135;-73
2023/07/01 03:14:02;;;;;;;32.85;16.88;;;;;;;;;;5028836;28;20045;-73
2023/07/01 03:16:28;;;;;;;35.78;16.65;;;;;;;;;;5017495;28;20045;-74
2023/07/01 03:18:54;;;;;;;33.05;17.13;;;;;;;;;;5019604;28;20049;-72
2023/07/01 03:21:19;;;;;;;35.25;16.80;;;;;;;;;;5024921;28;20052;-74
2023/07/01 03:23:45;;;;;;;30.77;16.83;;;;;;;;;;5021077;28;20064;-72
2023/07/01 03:26:10;;;;;;;34.97;16.90;;;;;;;;;;5018514;28;20079;-72
2023/07/01 03:28:36;;;;;;;33.97;17.42;;;;;;;;;;5020526;28;20049;-73
2023/07/01 03:31:04;;;;;;;37.75;16.17;;;;;;;;;;5003388;28;20118;-72
2023/07/01 03:33:29;;;;;;;36.22;18.02;;;;;;;;;;5029614;28;20049;-72
2023/07/01 03:35:55;;;;;;;35.88;16.98;;;;;;;;;;5022766;28;20056;-72
2023/07/01 03:38:20;;;;;;;33.97;17.48;;;;;;;;;;5019849;28;20049;-73
2023/07/01 03:40:47;;;;;;;30.17;16.25;;;;;;;;;;5022081;28;20049;-72
2023/07/01 03:43:13;;;;;;;36.08;16.42;;;;;;;;;;5022253;28;20045;-72
2023/07/01 03:45:38;;;;;;;39.00;17.38;;;;;;;;;;5021400;28;20103;-72
2023/07/01 03:48:05;;;;;;;36.30;16.73;;;;;;;;;;5020726;28;20136;-74
2023/07/01 03:50:30;;;;;;;31.83;16.05;;;;;;;;;;5026824;28;20387;-73
2023/07/01 03:52:56;;;;;;;37.97;16.60;;;;;;;;;;5023793;28;20037;-72
2023/07/01 03:55:21;;;;;;;29.55;15.73;;;;;;;;;;5019855;28;20071;-72
2023/07/01 03:57:47;;;;;;;32.45;16.08;;;;;;;;;;5020113;28;20080;-74
2023/07/01 04:00:19;;;;;;;32.72;15.85;;;;;;;;;;5020009;28;20049;-74
2023/07/01 04:02:49;;;;;;;28.08;14.13;;;;;;;;;;5021470;28;20533;-72
2023/07/01 04:05:15;;;;;;;31.92;13.93;;;;;;;;;;5026130;28;20132;-72
2023/07/01 04:07:42;;;;;;;25.67;13.90;;;;;;;;;;5020279;28;20152;-73
2023/07/01 04:10:08;;;;;;;25.02;12.45;;;;;;;;;;5022137;28;20053;-75
2023/07/01 04:12:35;;;;;;;28.45;13.52;;;;;;;;;;5026862;28;20453;-73
2023/07/01 04:15:01;;;;;;;24.20;11.70;;;;;;;;;;5027909;28;20052;-72
2023/07/01 04:17:28;;;;;;;23.65;12.40;;;;;;;;;;5026611;28;20053;-73
2023/07/01 04:19:54;;;;;;;24.25;11.40;;;;;;;;;;5019644;28;20156;-72
2023/07/01 04:22:19;;;;;;;20.40;9.80;;;;;;;;;;5021448;28;20521;-72
2023/07/01 04:24:45;;;;;;;21.38;9.38;;;;;;;;;;5022253;28;20049;-72
2023/07/01 04:27:11;;;;;;;15.15;7.55;;;;;;;;;;5019652;28;20846;-74
2023/07/01 04:29:36;;;;;;;16.95;8.40;;;;;;;;;;5035116;28;20055;-74
2023/07/01 04:32:02;;;;;;;15.90;8.10;;;;;;;;;;5029860;28;20040;-71
2023/07/01 04:34:27;;;;;;;10.43;6.68;;;;;;;;;;5030486;28;20049;-74
2023/07/01 04:36:52;;;;;;;12.55;7.63;;;;;;;;;;5021315;28;20060;-72
2023/07/01 04:39:22;;;;;;;13.38;7.30;;;;;;;;;;5027405;28;20045;-74
2023/07/01 04:41:48;;;;;;;12.05;6.88;;;;;;;;;;5034523;28;20632;-72
2023/07/01 04:44:14;;;;;;;10.27;6.82;;;;;;;;;;5023172;28;20111;-72
2023/07/01 04:46:39;;;;;;;11.85;6.32;;;;;;;;;;5028314;28;20190;-75
2023/07/01 04:49:05;;;;;;;13.27;7.10;;;;;;;;;;5019113;28;20064;-72
2023/07/01 04:51:32;;;;;;;10.00;6.28;;;;;;;;;;5019879;28;20076;-72
2023/07/01 04:54:00;;;;;;;15.73;6.90;;;;;;;;;;5024603;28;20071;-73
2023/07/01 04:56:26;;;;;;;9.60;5.65;;;;;;;;;;5024019;28;20045;-71
2023/07/01 04:58:51;;;;;;;8.07;5.60;;;;;;;;;;5019239;28;20045;-72
2023/07/01 05:01:17;;;;;;;11.60;6.45;;;;;;;;;;5019303;28;20192;-73
2023/07/01 05:03:43;;;;;;;11.20;5.80;;;;;;;;;;5027862;28;20060;-73
2023/07/01 05:06:08;;;;;;;11.98;6.22;;;;;;;;;;5033922;28;20178;-72
2023/07/01 05:08:34;;;;;;;10.05;5.25;;;;;;;;;;5018237;28;20041;-74
2023/07/01 05:10:59;;;;;;;11.35;5.78;;;;;;;;;;5025535;28;20080;-72
2023/07/01 05:13:24;;;;;;;6.50;4.65;;;;;;;;;;5030303;28;20057;-74
2023/07/01 05:15:50;;;;;;;6.88;4.05;;;;;;;;;;5029032;28;20050;-73
2023/07/01 05:18:15;;;;;;;5.78;3.72;;;;;;;;;;5028504;28;20045;-72
2023/07/01 05:20:40;;;;;;;6.97;4.25;;;;;;;;;;5031909;28;20592;-72
2023/07/01 05:23:06;;;;;;;5.85;3.78;;;;;;;;;;5023484;28;20046;-72
2023/07/01 05:25:31;;;;;;;7.93;4.15;;;;;;;;;;5028621;28;20118;-73
2023/07/01 05:27:57;;;;;;;5.70;4.00;;;;;;;;;;5029902;28;20057;-73
2023/07/01 05:30:22;;;;;;;5.43;3.88;;;;;;;;;;5026639;28;20057;-72
2023/07/01 05:32:48;;;;;;;5.03;3.40;;;;;;;;;;5029386;28;20049;-72
2023/07/01 05:35:14;;;;;;;9.57;3.45;;;;;;;;;;5028320;28;20092;-72
2023/07/01 05:37:40;;;;;;;5.72;3.55;;;;;;;;;;5030951;28;20057;-74
2023/07/01 05:40:06;;;;;;;9.65;3.67;;;;;;;;;;5026118;28;20119;-71
2023/07/01 05:42:31;;;;;;;7.63;3.90;;;;;;;;;;5032545;28;20095;-72
2023/07/01 05:44:57;;;;;;;9.80;3.22;;;;;;;;;;5030146;28;20045;-72
2023/07/01 05:47:22;;;;;;;7.53;3.55;;;;;;;;;;5025831;28;21731;-73
2023/07/01 05:49:48;;;;;;;9.68;4.07;;;;;;;;;;5023579;28;20045;-73
2023/07/01 05:52:13;;;;;;;8.15;4.95;;;;;;;;;;5025436;28;20139;-72
2023/07/01 05:54:38;;;;;;;9.38;4.25;;;;;;;;;;5027034;28;20049;-72
2023/07/01 05:57:04;;;;;;;9.38;4.55;;;;;;;;;;5028890;28;20041;-75
2023/07/01 05:59:30;;;;;;;11.18;5.45;;;;;;;;;;5029883;28;20133;-73
2023/07/01 06:01:55;;;;;;;8.23;4.88;;;;;;;;;;5034197;28;20133;-72
2023/07/01 06:04:21;;;;;;;7.15;4.40;;;;;;;;;;5028850;28;20067;-74
2023/07/01 06:06:46;;;;;;;9.38;4.25;;;;;;;;;;5023289;28;20096;-72
2023/07/01 06:09:14;;;;;;;6.65;4.88;;;;;;;;;;5022233;28;20418;-72
2023/07/01 06:11:40;;;;;;;12.98;5.13;;;;;;;;;;5031993;28;20561;-72
2023/07/01 06:14:05;;;;;;;8.27;5.07;;;;;;;;;;5033071;28;20288;-73
2023/07/01 06:16:31;;;;;;;9.55;5.50;;;;;;;;;;5004505;28;20041;-75
2023/07/01 06:18:56;;;;;;;7.88;5.22;;;;;;;;;;5028078;28;20037;-74
2023/07/01 06:21:22;;;;;;;11.30;5.30;;;;;;;;;;5012521;28;20052;-73
2023/07/01 06:23:47;;;;;;;7.40;4.80;;;;;;;;;;5030733;28;20041;-71
2023/07/01 06:26:13;;;;;;;7.25;4.80;;;;;;;;;;5030272;28;20081;-73
2023/07/01 06:28:38;;;;;;;7.10;4.63;;;;;;;;;;5030129;28;20041;-72
2023/07/01 06:31:04;;;;;;;6.85;4.55;;;;;;;;;;5020937;28;20037;-74
2023/07/01 06:33:29;;;;;;;7.60;5.10;;;;;;;;;;5023238;28;20049;-74
2023/07/01 06:35:55;;;;;;;7.47;5.00;;;;;;;;;;5023815;28;20462;-74
2023/07/01 06:38:20;;;;;;;6.45;4.82;;;;;;;;;;5021756;28;20046;-74
2023/07/01 06:40:46;;;;;;;10.20;4.80;;;;;;;;;;5024667;28;20525;-73
2023/07/01 06:43:11;;;;;;;7.72;4.40;;;;;;;;;;5030196;28;20056;-72
2023/07/01 06:45:37;;;;;;;6.13;3.85;;;;;;;;;;5023550;28;20049;-72
2023/07/01 06:48:03;;;;;;;6.78;4.57;;;;;;;;;;5021399;28;20115;-74
2023/07/01 06:50:29;;;;;;;6.68;4.18;;;;;;;;;;5018530;28;20045;-74
2023/07/01 06:52:54;;;;;;;7.93;4.55;;;;;;;;;;5019830;28;20060;-73
2023/07/01 06:55:20;;;;;;;6.07;4.30;;;;;;;;;;5021998;28;20103;-74
2023/07/01 06:57:45;;;;;;;6.40;4.13;;;;;;;;;;5028362;28;20049;-75
2023/07/01 07:00:12;;;;;;;7.30;4.93;;;;;;;;;;5026180;28;20049;-72
2023/07/01 07:02:39;;;;;;;5.57;3.90;;;;;;;;;;5020414;28;20102;-74
2023/07/01 07:05:05;;;;;;;5.25;3.65;;;;;;;;;;5019200;28;20053;-74
2023/07/01 07:07:31;;;;;;;5.88;3.65;;;;;;;;;;5018484;28;20128;-72
2023/07/01 07:09:56;;;;;;;5.75;3.90;;;;;;;;;;5025789;28;20132;-72
2023/07/01 07:12:22;;;;;;;4.50;3.50;;;;;;;;;;5019368;28;20399;-72
2023/07/01 07:14:47;;;;;;;4.50;3.45;;;;;;;;;;5018524;28;20045;-74
2023/07/01 07:17:13;;;;;;;6.65;3.60;;;;;;;;;;5021736;28;20422;-72
2023/07/01 07:19:38;;;;;;;5.50;3.28;;;;;;;;;;5029950;28;20045;-73
2023/07/01 07:22:05;;;;;;;4.70;3.10;;;;;;;;;;5021508;28;20051;-74
2023/07/01 07:24:30;;;;;;;4.88;3.08;;;;;;;;;;5027062;28;20068;-73
2023/07/01 07:26:57;;;;;;;4.10;3.33;;;;;;;;;;5021682;28;20041;-74
2023/07/01 07:29:30;;;;;;;6.55;4.03;;;;;;;;;;5023075;28;20048;-73
2023/07/01 07:31:56;;;;;;;4.47;3.30;;;;;;;;;;5022859;28;20547;-74
2023/07/01 07:34:23;;;;;;;4.47;3.17;;;;;;;;;;5021339;28;20129;-74
2023/07/01 07:36:48;;;;;;;3.80;3.10;;;;;;;;;;5021051;28;20092;-73
2023/07/01 07:39:14;;;;;;;4.00;3.28;;;;;;;;;;5020647;28;20159;-71
2023/07/01 07:41:44;;;;;;;4.65;3.47;;;;;;;;;;5023540;28;20060;-71
2023/07/01 07:44:10;;;;;;;3.33;2.78;;;;;;;;;;5020979;28;20053;-73
2023/07/01 07:46:36;;;;;;;2.88;2.58;;;;;;;;;;5027317;28;20048;-74
2023/07/01 07:49:02;;;;;;;4.40;3.35;;;;;;;;;;5022057;28;20049;-74
2023/07/01 07:51:28;;;;;;;4.22;2.90;;;;;;;;;;5026291;28;20139;-73
2023/07/01 07:53:54;;;;;;;4.07;3.00;;;;;;;;;;5024505;28;20057;-74
2023/07/01 07:56:19;;;;;;;3.25;2.95;;;;;;;;;;5001865;28;20042;-72
2023/07/01 07:58:45;;;;;;;6.57;3.22;;;;;;;;;;5020753;28;20041;-74
2023/07/01 08:01:11;;;;;;;3.67;2.90;;;;;;;;;;5026245;28;20772;-71
2023/07/01 08:03:36;;;;;;;3.53;2.75;;;;;;;;;;5024101;28;20053;-72
2023/07/01 08:06:02;;;;;;;3.22;2.70;;;;;;;;;;5020240;28;20075;-72
2023/07/01 08:08:27;;;;;;;3.85;3.08;;;;;;;;;;5020374;28;20111;-74
2023/07/01 08:10:53;;;;;;;4.80;3.13;;;;;;;;;;5020605;28;20064;-72
2023/07/01 08:13:18;;;;;;;4.93;2.80;;;;;;;;;;5022129;28;20041;-72
2023/07/01 08:15:44;;;;;;;3.42;2.80;;;;;;;;;;5020266;28;20042;-73
2023/07/01 08:18:10;;;;;;;5.45;2.95;;;;;;;;;;5020393;28;20061;-73
2023/07/01 08:20:35;;;;;;;2.90;2.60;;;;;;;;;;5020708;28;20483;-74
2023/07/01 08:23:00;;;;;;;2.50;2.30;;;;;;;;;;5020475;28;20084;-73
2023/07/01 08:25:26;;;;;;;4.22;2.83;;;;;;;;;;5024008;28;20045;-73
2023/07/01 08:27:52;;;;;;;4.15;2.67;;;;;;;;;;5012039;28;20056;-73
2023/07/01 08:30:18;;;;;;;4.22;2.67;;;;;;;;;;5006792;28;20115;-74
2023/07/01 08:32:44;;;;;;;3.10;2.78;;;;;;;;;;5021498;28;20064;-73
2023/07/01 08:35:09;;;;;;;3.17;2.50;;;;;;;;;;5017747;28;20045;-74
2023/07/01 08:37:35;;;;;;;2.92;2.42;;;;;;;;;;5019141;28;20672;-72
2023/07/01 08:40:00;;;;;;;4.30;2.95;;;;;;;;;;5020988;28;20076;-74
2023/07/01 08:42:34;;;;;;;2.50;2.30;;;;;;;;;;5019902;28;20040;-74
2023/07/01 08:45:01;;;;;;;4.95;2.70;;;;;;;;;;5028718;28;20064;-72
2023/07/01 08:47:27;;;;;;;3.92;2.70;;;;;;;;;;5028144;28;20053;-73
2023/07/01 08:49:55;;;;;;;3.22;2.83;;;;;;;;;;5024604;28;20095;-75
2023/07/01 08:52:22;;;;;;;4.20;2.30;;;;;;;;;;5023229;28;20046;-74
2023/07/01 08:54:48;;;;;;;2.83;2.45;;;;;;;;;;5020189;28;20049;-74
2023/07/01 08:57:14;;;;;;;5.07;2.53;;;;;;;;;;5033462;28;20216;-74
2023/07/01 08:59:42;;;;;;;4.30;2.53;;;;;;;;;;5018219;28;20056;-74
2023/07/01 09:02:08;;;;;;;2.78;2.25;;;;;;;;;;5002999;28;20061;-74
2023/07/01 09:04:37;;;;;;;2.60;2.40;;;;;;;;;;5023397;28;20098;-73
2023/07/01 09:07:03;;;;;;;2.30;2.10;;;;;;;;;;5029262;28;20041;-72
2023/07/01 09:09:29;;;;;;;2.38;2.10;;;;;;;;;;5022916;28;20053;-74
2023/07/01 09:11:54;;;;;;;3.28;2.60;;;;;;;;;;5019622;28;20053;-74
2023/07/01 09:14:20;;;;;;;2.92;2.30;;;;;;;;;;5032053;28;20041;-73
2023/07/01 09:16:45;;;;;;;3.67;2.40;;;;;;;;;;5021788;28;20046;-72
2023/07/01 09:19:16;;;;;;;3.30;2.38;;;;;;;;;;5020916;28;20050;-73
2023/07/01 09:22:08;;;;;;;3.13;2.00;;;;;;;;;;5021396;28;20440;-74
2023/07/01 09:24:38;;;;;;;2.80;2.00;;;;;;;;;;5025280;28;20052;-75
2023/07/01 09:27:04;;;;;;;4.00;2.60;;;;;;;;;;5006820;28;20080;-75
2023/07/01 09:29:31;;;;;;;3.20;2.50;;;;;;;;;;5033257;28;20562;-77
2023/07/01 09:31:56;;;;;;;3.08;2.00;;;;;;;;;;5011158;28;20107;-73
2023/07/01 09:34:22;;;;;;;2.40;2.20;;;;;;;;;;5023460;28;20041;-75
2023/07/01 09:36:48;;;;;;;2.10;1.90;;;;;;;;;;5016567;28;20050;-74
2023/07/01 09:39:13;;;;;;;3.17;2.38;;;;;;;;;;5021390;28;20417;-73
2023/07/01 09:41:39;;;;;;;3.38;2.60;;;;;;;;;;5033214;28;20959;-75
2023/07/01 09:44:16;;;;;;;2.70;2.42;;;;;;;;;;5013797;28;20107;-73
2023/07/01 09:46:49;;;;;;;3.45;2.03;;;;;;;;;;5028683;28;20045;-72
2023/07/01 09:49:14;;;;;;;3.22;2.13;;;;;;;;;;5020903;28;21067;-75
2023/07/01 09:51:49;;;;;;;4.68;1.77;;;;;;;;;;5037634;28;20094;-75
2023/07/01 09:54:27;;;;;;;1.80;1.70;;;;;;;;;;5019311;28;20484;-74
2023/07/01 09:56:56;;;;;;;1.70;1.60;;;;;;;;;;5019440;28;20042;-73
2023/07/01 09:59:23;;;;;;;2.60;1.60;;;;;;;;;;5023922;28;20073;-73
2023/07/01 10:01:50;;;;;;;2.35;1.92;;;;;;;;;;5020086;28;20045;-75
2023/07/01 10:04:19;;;;;;;2.28;2.08;;;;;;;;;;5025920;28;20138;-76
2023/07/01 10:06:45;;;;;;;2.25;1.67;;;;;;;;;;5029559;28;20037;-76
2023/07/01 10:09:10;;;;;;;2.28;1.90;;;;;;;;;;4990779;28;20072;-76
2023/07/01 10:11:37;;;;;;;2.30;1.60;;;;;;;;;;5005163;28;20053;-75
2023/07/01 10:14:04;;;;;;;4.00;1.65;;;;;;;;;;5020351;28;20037;-75
2023/07/01 10:16:30;;;;;;;2.33;2.00;;;;;;;;;;5004387;28;20045;-75
2023/07/01 10:18:55;;;;;;;3.33;1.70;;;;;;;;;;5018188;28;20049;-74
2023/07/01 10:21:24;;;;;;;1.60;1.50;;;;;;;;;;5018478;28;20048;-76
2023/07/01 10:23:50;;;;;;;2.05;1.50;;;;;;;;;;5023824;28;20053;-75
2023/07/01 10:26:35;;;;;;;2.33;1.65;;;;;;;;;;5024267;28;20494;-74
2023/07/01 10:29:29;;;;;;;1.92;1.83;;;;;;;;;;5025874;28;20044;-75
2023/07/01 10:32:11;;;;;;;2.35;1.75;;;;;;;;;;5044940;28;20049;-76
2023/07/01 10:34:55;;;;;;;3.08;1.55;;;;;;;;;;4997383;28;20053;-75
2023/07/01 10:37:25;;;;;;;3.38;1.70;;;;;;;;;;5003844;28;20045;-75
2023/07/01 10:39:51;;;;;;;2.17;1.70;;;;;;;;;;5042290;28;20049;-75
2023/07/01 10:42:31;;;;;;;3.15;1.77;;;;;;;;;;5030672;28;20490;-76
2023/07/01 10:45:12;;;;;;;2.42;1.58;;;;;;;;;;5007046;28;20820;-76
2023/07/01 10:47:44;;;;;;;2.35;1.88;;;;;;;;;;5020480;28;20127;-76
2023/07/01 10:50:11;;;;;;;3.13;2.00;;;;;;;;;;4990083;28;20045;-74
2023/07/01 10:52:55;;;;;;;2.35;1.88;;;;;;;;;;5023365;28;20069;-75
2023/07/01 10:55:40;;;;;;;3.10;1.70;;;;;;;;;;5006506;28;20067;-75
2023/07/01 10:58:22;;;;;;;2.28;1.70;;;;;;;;;;4997487;28;20061;-74
2023/07/01 11:00:54;;;;;;;2.10;1.90;;;;;;;;;;4989603;28;20071;-74
2023/07/01 11:03:32;;;;;;;5.10;1.60;;;;;;;;;;5022885;28;20038;-76
2023/07/01 11:05:59;;;;;;;4.72;1.50;;;;;;;;;;4999355;28;20048;-73
2023/07/01 11:08:26;;;;;;;2.47;1.70;;;;;;;;;;5011851;28;20045;-74
2023/07/01 11:10:51;;;;;;;2.40;1.73;;;;;;;;;;5020928;28;20072;-75
2023/07/01 11:13:18;;;;;;;2.33;1.63;;;;;;;;;;5019637;28;20061;-76
2023/07/01 11:16:03;;;;;;;1.63;1.52;;;;;;;;;;5029610;28;20037;-77
2023/07/01 11:18:44;;;;;;;1.85;1.40;;;;;;;;;;5027381;28;20552;-76
2023/07/01 11:21:12;;;;;;;3.10;1.70;;;;;;;;;;5012004;28;20060;-75
2023/07/01 11:23:42;;;;;;;3.08;1.70;;;;;;;;;;5041696;28;20053;-75
2023/07/01 11:26:08;;;;;;;1.73;1.60;;;;;;;;;;5026630;28;20494;-76
2023/07/01 11:28:35;;;;;;;2.63;1.45;;;;;;;;;;5035435;28;20064;-75
2023/07/01 11:31:22;;;;;;;1.70;1.60;;;;;;;;;;4994417;28;20128;-74
2023/07/01 11:33:55;;;;;;;2.15;1.80;;;;;;;;;;5046027;28;20049;-78
2023/07/01 11:36:34;;;;;;;1.40;1.30;;;;;;;;;;5023532;28;20057;-73
2023/07/01 11:39:09;;;;;;;1.90;1.70;;;;;;;;;;5025365;28;20162;-75
2023/07/01 11:41:36;;;;;;;2.78;1.58;;;;;;;;;;5026081;28;20072;-78
2023/07/01 11:44:07;;;;;;;1.60;1.50;;;;;;;;;;5029371;28;20049;-77
2023/07/01 11:46:37;;;;;;;1.40;1.30;;;;;;;;;;5025471;28;20045;-77
2023/07/01 11:49:17;;;;;;;2.92;1.70;;;;;;;;;;5021733;28;20095;-76
2023/07/01 11:51:45;;;;;;;1.63;1.52;;;;;;;;;;5044317;28;20053;-77
2023/07/01 11:54:11;;;;;;;3.60;1.60;;;;;;;;;;5035201;28;20191;-74
2023/07/01 11:56:37;;;;;;;3.00;1.60;;;;;;;;;;5030885;28;20117;-74
2023/07/01 11:59:02;;;;;;;5.90;1.88;;;;;;;;;;5024513;28;20120;-78
2023/07/01 12:01:28;;;;;;;1.92;1.30;;;;;;;;;;5034039;28;20150;-77
2023/07/01 12:03:54;;;;;;;1.73;1.60;;;;;;;;;;5021550;28;20103;-75
2023/07/01 12:06:22;;;;;;;1.58;1.45;;;;;;;;;;5016641;28;20466;-76
2023/07/01 12:08:55;;;;;;;5.57;1.75;;;;;;;;;;5014506;28;20132;-77
2023/07/01 12:11:21;;;;;;;3.17;1.35;;;;;;;;;;5031114;28;20410;-76
2023/07/01 12:13:47;;;;;;;2.42;1.52;;;;;;;;;;5033919;28;20053;-78
2023/07/01 12:16:13;;;;;;;1.75;1.58;;;;;;;;;;5017376;28;20124;-77
2023/07/01 12:18:38;;;;;;;2.95;1.75;;;;;;;;;;5011205;28;20370;-76
2023/07/01 12:21:04;;;;;;;1.60;1.42;;;;;;;;;;5035281;28;20049;-74
2023/07/01 12:23:38;;;;;;;1.77;1.67;;;;;;;;;;5034641;28;20136;-78
2023/07/01 12:26:03;;;;;;;2.35;1.50;;;;;;;;;;5039023;28;20045;-78
2023/07/01 12:28:29;;;;;;;1.98;1.42;;;;;;;;;;5021115;28;20045;-76
2023/07/01 12:30:54;;;;;;;2.17;1.40;;;;;;;;;;5016659;28;20501;-76
2023/07/01 12:33:19;;;;;;;1.45;1.35;;;;;;;;;;5019796;28;20049;-72
2023/07/01 12:35:45;;;;;;;1.70;1.60;;;;;;;;;;5022235;28;20045;-72
2023/07/01 12:38:12;;;;;;;1.67;1.58;;;;;;;;;;5020324;28;20053;-71
2023/07/01 12:40:37;;;;;;;2.20;1.50;;;;;;;;;;5024068;28;20157;-72
2023/07/01 12:43:03;;;;;;;1.50;1.40;;;;;;;;;;5020262;28;20103;-73
2023/07/01 12:45:29;;;;;;;2.42;1.40;;;;;;;;;;5016022;28;20042;-73
2023/07/01 12:47:56;;;;;;;1.65;1.40;;;;;;;;;;5021353;28;20163;-72
2023/07/01 12:50:21;;;;;;;1.88;1.58;;;;;;;;;;5013301;28;20044;-72
2023/07/01 12:52:52;;;;;;;4.15;1.92;;;;;;;;;;5018592;28;20046;-72
2023/07/01 12:55:17;;;;;;;1.60;1.30;;;;;;;;;;5021124;28;20049;-72
2023/07/01 12:57:42;;;;;;;1.60;1.50;;;;;;;;;;5024762;28;20048;-72
2023/07/01 13:00:09;;;;;;;4.07;1.90;;;;;;;;;;5028052;28;20164;-72
2023/07/01 13:02:34;;;;;;;2.28;1.67;;;;;;;;;;5030775;28;20049;-72
2023/07/01 13:05:03;;;;;;;2.00;1.80;;;;;;;;;;5028824;28;20044;-72
2023/07/01 13:07:31;;;;;;;2.00;1.52;;;;;;;;;;5019238;28;20061;-73
2023/07/01 13:10:01;;;;;;;1.25;1.15;;;;;;;;;;5024050;28;20132;-72
2023/07/01 13:12:27;;;;;;;1.70;1.40;;;;;;;;;;5022464;28;20038;-72
2023/07/01 13:14:54;;;;;;;1.80;1.70;;;;;;;;;;5023967;28;20045;-72
2023/07/01 13:17:41;;;;;;;1.70;1.48;;;;;;;;;;5018905;28;20037;-72
2023/07/01 13:20:10;;;;;;;1.40;1.30;;;;;;;;;;5016337;28;20139;-72
2023/07/01 13:22:36;;;;;;;2.45;1.55;;;;;;;;;;5019370;28;20049;-73
2023/07/01 13:25:02;;;;;;;4.35;1.35;;;;;;;;;;5022702;28;20049;-71
2023/07/01 13:27:28;;;;;;;1.65;1.30;;;;;;;;;;5026499;28;20100;-71
2023/07/01 13:29:53;;;;;;;3.03;1.38;;;;;;;;;;5022025;28;20075;-72
2023/07/01 13:32:23;;;;;;;2.70;1.30;;;;;;;;;;5017751;28;20160;-71
2023/07/01 13:34:50;;;;;;;1.50;1.38;;;;;;;;;;5020819;28;20144;-72
2023/07/01 13:37:19;;;;;;;1.42;1.33;;;;;;;;;;5017820;28;20048;-70
2023/07/01 13:39:47;;;;;;;2.35;1.52;;;;;;;;;;5019094;28;20195;-72
2023/07/01 13:42:15;;;;;;;1.95;1.77;;;;;;;;;;5018415;28;20049;-72
2023/07/01 13:44:41;;;;;;;3.65;1.50;;;;;;;;;;5023057;28;20053;-72
2023/07/01 13:47:09;;;;;;;3.83;1.38;;;;;;;;;;5029206;28;20049;-70
2023/07/01 13:49:34;;;;;;;2.28;1.45;;;;;;;;;;5018460;28;20604;-72
2023/07/01 13:52:01;;;;;;;1.77;1.65;;;;;;;;;;5019513;28;20096;-72
2023/07/01 13:54:27;;;;;;;4.13;1.40;;;;;;;;;;5018396;28;20045;-72
2023/07/01 13:56:56;;;;;;;1.80;1.27;;;;;;;;;;5024084;28;20060;-73
2023/07/01 13:59:23;;;;;;;1.40;1.30;;;;;;;;;;5028644;28;20094;-72
2023/07/01 14:02:02;;;;;;;1.35;1.25;;;;;;;;;;5023691;28;20095;-72
2023/07/01 14:04:31;;;;;;;2.58;1.40;;;;;;;;;;5027340;28;20622;-71
2023/07/01 14:06:57;;;;;;;1.73;1.30;;;;;;;;;;5027233;28;20072;-72
2023/07/01 14:09:27;;;;;;;1.27;1.10;;;;;;;;;;5027223;28;20183;-72
2023/07/01 14:11:54;;;;;;;1.40;1.30;;;;;;;;;;5027873;28;20049;-72
2023/07/01 14:14:20;;;;;;;2.20;1.40;;;;;;;;;;5029324;28;20052;-73
2023/07/01 14:16:47;;;;;;;2.60;1.40;;;;;;;;;;5026037;28;20040;-72
2023/07/01 14:19:15;;;;;;;1.52;1.42;;;;;;;;;;5031300;28;20041;-73
2023/07/01 14:21:41;;;;;;;2.35;1.20;;;;;;;;;;5030149;28;20107;-72
2023/07/01 14:24:10;;;;;;;2.75;1.05;;;;;;;;;;5026382;28;20037;-72
2023/07/01 14:26:45;;;;;;;1.40;1.30;;;;;;;;;;5031442;28;20029;-72
2023/07/01 14:29:15;;;;;;;1.50;1.40;;;;;;;;;;5025951;28;20045;-73
2023/07/01 14:31:43;;;;;;;2.05;1.60;;;;;;;;;;5029202;28;20406;-74
2023/07/01 14:34:10;;;;;;;1.63;1.30;;;;;;;;;;5020829;28;20059;-73
2023/07/01 14:36:37;;;;;;;2.13;1.50;;;;;;;;;;5025332;28;20052;-73